sensor_id;sensor_type;location;lat;lon;timestamp;temperature;humidity
1225;DHT22;602;48.000;7.840;2023-09-12T00:00:41;23.40;99.90
1225;DHT22;602;48.000;7.840;2023-09-12T00:03:13;23.40;99.90
1225;DHT22;602;48.000;7.840;2023-09-12T00:05:39;23.40;99.90
1225;DHT22;602;48.000;7.840;2023-09-12T00:08:11;23.40;99.90
1225;DHT22;602;48.000;7.840;2023-09-12T00:10:39;23.40;99.90
1225;DHT22;602;48.000;7.840;2023-09-12T00:13:09;23.30;99.90
1225;DHT22;602;48.000;7.840;2023-09-12T00:15:40;23.40;99.90
1225;DHT22;602;48.000;7.840;2023-09-12T00:18:07;23.20;99.90
1225;DHT22;602;48.000;7.840;2023-09-12T00:20:40;23.20;99.90
1225;DHT22;602;48.000;7.840;2023-09-12T00:23:06;23.20;99.90
1225;DHT22;602;48.000;7.840;2023-09-12T00:25:33;23.20;99.90
1225;DHT22;602;48.000;7.840;2023-09-12T00:28:00;23.20;99.90
1225;DHT22;602;48.000;7.840;2023-09-12T00:30:27;23.20;99.90
1225;DHT22;602;48.000;7.840;2023-09-12T00:32:55;23.10;99.90
1225;DHT22;602;48.000;7.840;2023-09-12T00:35:22;23.10;99.90
1225;DHT22;602;48.000;7.840;2023-09-12T00:37:52;23.10;99.90
1225;DHT22;602;48.000;7.840;2023-09-12T00:40:21;23.10;99.90
1225;DHT22;602;48.000;7.840;2023-09-12T00:42:51;23.00;99.90
1225;DHT22;602;48.000;7.840;2023-09-12T00:45:18;23.10;99.90
1225;DHT22;602;48.000;7.840;2023-09-12T00:47:48;22.90;99.90
1225;DHT22;602;48.000;7.840;2023-09-12T00:50:18;22.80;99.90
1225;DHT22;602;48.000;7.840;2023-09-12T00:52:45;22.70;99.90
1225;DHT22;602;48.000;7.840;2023-09-12T00:55:13;22.60;99.90
1225;DHT22;602;48.000;7.840;2023-09-12T00:57:40;22.70;99.90
1225;DHT22;602;48.000;7.840;2023-09-12T01:00:11;22.70;99.90
1225;DHT22;602;48.000;7.840;2023-09-12T01:02:40;22.70;99.90
1225;DHT22;602;48.000;7.840;2023-09-12T01:05:08;22.70;99.90
1225;DHT22;602;48.000;7.840;2023-09-12T01:07:37;22.80;99.90
1225;DHT22;602;48.000;7.840;2023-09-12T01:10:05;22.80;99.90
1225;DHT22;602;48.000;7.840;2023-09-12T01:12:33;22.90;99.90
1225;DHT22;602;48.000;7.840;2023-09-12T01:14:59;22.90;99.90
1225;DHT22;602;48.000;7.840;2023-09-12T01:17:27;23.00;99.90
1225;DHT22;602;48.000;7.840;2023-09-12T01:19:54;23.00;99.90
1225;DHT22;602;48.000;7.840;2023-09-12T01:22:40;23.10;99.90
1225;DHT22;602;48.000;7.840;2023-09-12T01:25:18;23.20;99.90
1225;DHT22;602;48.000;7.840;2023-09-12T01:27:50;23.20;99.90
1225;DHT22;602;48.000;7.840;2023-09-12T01:30:20;23.10;99.90
1225;DHT22;602;48.000;7.840;2023-09-12T01:32:47;23.10;99.90
1225;DHT22;602;48.000;7.840;2023-09-12T01:35:15;22.90;99.90
1225;DHT22;602;48.000;7.840;2023-09-12T01:37:41;22.90;99.90
1225;DHT22;602;48.000;7.840;2023-09-12T01:40:09;23.00;99.90
1225;DHT22;602;48.000;7.840;2023-09-12T01:42:38;22.90;99.90
1225;DHT22;602;48.000;7.840;2023-09-12T01:45:09;22.80;99.90
1225;DHT22;602;48.000;7.840;2023-09-12T01:47:37;22.80;99.90
1225;DHT22;602;48.000;7.840;2023-09-12T01:50:06;22.80;99.90
1225;DHT22;602;48.000;7.840;2023-09-12T01:52:34;22.80;99.90
1225;DHT22;602;48.000;7.840;2023-09-12T01:55:02;22.60;99.90
1225;DHT22;602;48.000;7.840;2023-09-12T01:57:29;22.70;99.90
1225;DHT22;602;48.000;7.840;2023-09-12T01:59:58;22.70;99.90
1225;DHT22;602;48.000;7.840;2023-09-12T02:02:26;22.80;99.90
1225;DHT22;602;48.000;7.840;2023-09-12T02:04:59;22.80;99.90
1225;DHT22;602;48.000;7.840;2023-09-12T02:07:30;22.90;99.90
1225;DHT22;602;48.000;7.840;2023-09-12T02:09:59;22.90;99.90
1225;DHT22;602;48.000;7.840;2023-09-12T02:12:26;22.80;99.90
1225;DHT22;602;48.000;7.840;2023-09-12T02:14:53;22.70;99.90
1225;DHT22;602;48.000;7.840;2023-09-12T02:17:20;22.80;99.90
1225;DHT22;602;48.000;7.840;2023-09-12T02:19:49;22.80;99.90
1225;DHT22;602;48.000;7.840;2023-09-12T02:22:15;22.70;99.90
1225;DHT22;602;48.000;7.840;2023-09-12T02:24:42;22.80;99.90
1225;DHT22;602;48.000;7.840;2023-09-12T02:27:09;22.80;99.90
1225;DHT22;602;48.000;7.840;2023-09-12T02:29:38;22.80;99.90
1225;DHT22;602;48.000;7.840;2023-09-12T02:32:05;22.80;99.90
1225;DHT22;602;48.000;7.840;2023-09-12T02:34:32;22.90;99.90
1225;DHT22;602;48.000;7.840;2023-09-12T02:37:00;22.80;99.90
1225;DHT22;602;48.000;7.840;2023-09-12T02:39:27;22.70;99.90
1225;DHT22;602;48.000;7.840;2023-09-12T02:41:54;22.70;99.90
1225;DHT22;602;48.000;7.840;2023-09-12T02:44:20;22.70;99.90
1225;DHT22;602;48.000;7.840;2023-09-12T02:46:47;22.70;99.90
1225;DHT22;602;48.000;7.840;2023-09-12T02:49:15;22.70;99.90
1225;DHT22;602;48.000;7.840;2023-09-12T02:51:42;22.70;99.90
1225;DHT22;602;48.000;7.840;2023-09-12T02:54:10;22.80;99.90
1225;DHT22;602;48.000;7.840;2023-09-12T02:56:37;22.80;99.90
1225;DHT22;602;48.000;7.840;2023-09-12T02:59:04;22.90;99.90
1225;DHT22;602;48.000;7.840;2023-09-12T03:01:31;22.90;99.90
1225;DHT22;602;48.000;7.840;2023-09-12T03:03:58;22.80;99.90
1225;DHT22;602;48.000;7.840;2023-09-12T03:06:24;22.90;99.90
1225;DHT22;602;48.000;7.840;2023-09-12T03:08:51;23.00;99.90
1225;DHT22;602;48.000;7.840;2023-09-12T03:11:20;23.00;99.90
1225;DHT22;602;48.000;7.840;2023-09-12T03:13:46;22.90;99.90
1225;DHT22;602;48.000;7.840;2023-09-12T03:16:14;22.80;99.90
1225;DHT22;602;48.000;7.840;2023-09-12T03:18:41;22.80;99.90
1225;DHT22;602;48.000;7.840;2023-09-12T03:21:08;22.70;99.90
1225;DHT22;602;48.000;7.840;2023-09-12T03:23:35;22.80;99.90
1225;DHT22;602;48.000;7.840;2023-09-12T03:26:02;22.80;99.90
1225;DHT22;602;48.000;7.840;2023-09-12T03:28:31;22.90;99.90
1225;DHT22;602;48.000;7.840;2023-09-12T03:31:06;22.90;99.90
1225;DHT22;602;48.000;7.840;2023-09-12T03:33:33;22.90;99.90
1225;DHT22;602;48.000;7.840;2023-09-12T03:36:00;22.90;99.90
1225;DHT22;602;48.000;7.840;2023-09-12T03:38:27;22.90;99.90
1225;DHT22;602;48.000;7.840;2023-09-12T03:40:54;22.90;99.90
1225;DHT22;602;48.000;7.840;2023-09-12T03:43:21;23.00;99.90
1225;DHT22;602;48.000;7.840;2023-09-12T03:45:49;22.90;99.90
1225;DHT22;602;48.000;7.840;2023-09-12T03:48:15;22.90;99.90
1225;DHT22;602;48.000;7.840;2023-09-12T03:50:42;22.90;99.90
1225;DHT22;602;48.000;7.840;2023-09-12T03:53:09;22.80;99.90
1225;DHT22;602;48.000;7.840;2023-09-12T03:55:36;22.80;99.90
1225;DHT22;602;48.000;7.840;2023-09-12T03:58:03;22.80;99.90
1225;DHT22;602;48.000;7.840;2023-09-12T04:00:30;22.90;99.90
1225;DHT22;602;48.000;7.840;2023-09-12T04:02:58;22.90;99.90
1225;DHT22;602;48.000;7.840;2023-09-12T04:05:25;22.90;99.90
1225;DHT22;602;48.000;7.840;2023-09-12T04:07:52;22.90;99.90
1225;DHT22;602;48.000;7.840;2023-09-12T04:10:20;22.80;99.90
1225;DHT22;602;48.000;7.840;2023-09-12T04:12:47;22.60;99.90
1225;DHT22;602;48.000;7.840;2023-09-12T04:15:14;22.50;99.90
1225;DHT22;602;48.000;7.840;2023-09-12T04:17:41;22.40;99.90
1225;DHT22;602;48.000;7.840;2023-09-12T04:20:09;22.40;99.90
1225;DHT22;602;48.000;7.840;2023-09-12T04:22:39;22.50;99.90
1225;DHT22;602;48.000;7.840;2023-09-12T04:25:06;22.40;99.90
1225;DHT22;602;48.000;7.840;2023-09-12T04:27:33;22.50;99.90
1225;DHT22;602;48.000;7.840;2023-09-12T04:30:00;22.30;99.90
1225;DHT22;602;48.000;7.840;2023-09-12T04:32:28;22.10;99.90
1225;DHT22;602;48.000;7.840;2023-09-12T04:34:55;22.10;99.90
1225;DHT22;602;48.000;7.840;2023-09-12T04:37:23;22.20;99.90
1225;DHT22;602;48.000;7.840;2023-09-12T04:39:50;22.00;99.90
1225;DHT22;602;48.000;7.840;2023-09-12T04:42:17;22.10;99.90
1225;DHT22;602;48.000;7.840;2023-09-12T04:44:44;22.10;99.90
1225;DHT22;602;48.000;7.840;2023-09-12T04:47:11;22.00;99.90
1225;DHT22;602;48.000;7.840;2023-09-12T04:49:39;22.00;99.90
1225;DHT22;602;48.000;7.840;2023-09-12T04:52:05;22.00;99.90
1225;DHT22;602;48.000;7.840;2023-09-12T04:54:34;22.10;99.90
1225;DHT22;602;48.000;7.840;2023-09-12T04:57:02;22.20;99.90
1225;DHT22;602;48.000;7.840;2023-09-12T04:59:29;22.20;99.90
1225;DHT22;602;48.000;7.840;2023-09-12T05:01:55;22.10;99.90
1225;DHT22;602;48.000;7.840;2023-09-12T05:04:22;22.10;99.90
1225;DHT22;602;48.000;7.840;2023-09-12T05:06:49;22.10;99.90
1225;DHT22;602;48.000;7.840;2023-09-12T05:09:16;22.10;99.90
1225;DHT22;602;48.000;7.840;2023-09-12T05:11:44;22.20;99.90
1225;DHT22;602;48.000;7.840;2023-09-12T05:14:11;22.10;99.90
1225;DHT22;602;48.000;7.840;2023-09-12T05:16:37;22.20;99.90
1225;DHT22;602;48.000;7.840;2023-09-12T05:19:04;22.00;99.90
1225;DHT22;602;48.000;7.840;2023-09-12T05:21:31;22.00;99.90
1225;DHT22;602;48.000;7.840;2023-09-12T05:23:58;22.00;99.90
1225;DHT22;602;48.000;7.840;2023-09-12T05:26:25;22.10;99.90
1225;DHT22;602;48.000;7.840;2023-09-12T05:28:53;22.20;99.90
1225;DHT22;602;48.000;7.840;2023-09-12T05:31:20;22.20;99.90
1225;DHT22;602;48.000;7.840;2023-09-12T05:33:47;22.20;99.90
1225;DHT22;602;48.000;7.840;2023-09-12T05:36:14;22.20;99.90
1225;DHT22;602;48.000;7.840;2023-09-12T05:38:41;22.20;99.90
1225;DHT22;602;48.000;7.840;2023-09-12T05:41:08;22.20;99.90
1225;DHT22;602;48.000;7.840;2023-09-12T05:43:35;22.30;99.90
1225;DHT22;602;48.000;7.840;2023-09-12T05:46:03;22.30;99.90
1225;DHT22;602;48.000;7.840;2023-09-12T05:48:30;22.40;99.90
1225;DHT22;602;48.000;7.840;2023-09-12T05:50:57;22.50;99.90
1225;DHT22;602;48.000;7.840;2023-09-12T05:53:24;22.60;99.90
1225;DHT22;602;48.000;7.840;2023-09-12T05:55:50;22.70;99.90
1225;DHT22;602;48.000;7.840;2023-09-12T05:58:17;22.70;99.90
1225;DHT22;602;48.000;7.840;2023-09-12T06:00:44;22.70;99.90
1225;DHT22;602;48.000;7.840;2023-09-12T06:03:14;22.70;99.90
1225;DHT22;602;48.000;7.840;2023-09-12T06:05:41;22.80;99.90
1225;DHT22;602;48.000;7.840;2023-09-12T06:08:08;22.80;99.90
1225;DHT22;602;48.000;7.840;2023-09-12T06:10:35;22.90;99.90
1225;DHT22;602;48.000;7.840;2023-09-12T06:13:02;23.00;99.90
1225;DHT22;602;48.000;7.840;2023-09-12T06:15:29;23.10;99.90
1225;DHT22;602;48.000;7.840;2023-09-12T06:17:56;23.20;99.90
1225;DHT22;602;48.000;7.840;2023-09-12T06:20:24;23.20;99.90
1225;DHT22;602;48.000;7.840;2023-09-12T06:22:51;23.10;99.90
1225;DHT22;602;48.000;7.840;2023-09-12T06:25:18;23.10;99.90
1225;DHT22;602;48.000;7.840;2023-09-12T06:27:44;23.00;99.90
1225;DHT22;602;48.000;7.840;2023-09-12T06:30:12;23.00;99.90
1225;DHT22;602;48.000;7.840;2023-09-12T06:36:03;23.10;99.90
1225;DHT22;602;48.000;7.840;2023-09-12T06:38:30;23.20;99.90
1225;DHT22;602;48.000;7.840;2023-09-12T06:40:57;23.40;99.90
1225;DHT22;602;48.000;7.840;2023-09-12T06:43:24;23.40;99.90
1225;DHT22;602;48.000;7.840;2023-09-12T06:45:51;23.40;99.90
1225;DHT22;602;48.000;7.840;2023-09-12T06:48:17;23.50;99.90
1225;DHT22;602;48.000;7.840;2023-09-12T06:50:44;23.60;99.90
1225;DHT22;602;48.000;7.840;2023-09-12T06:53:13;23.80;99.90
1225;DHT22;602;48.000;7.840;2023-09-12T06:55:39;23.90;99.90
1225;DHT22;602;48.000;7.840;2023-09-12T06:58:06;24.10;99.90
1225;DHT22;602;48.000;7.840;2023-09-12T07:00:33;24.20;99.90
1225;DHT22;602;48.000;7.840;2023-09-12T07:03:00;24.50;99.90
1225;DHT22;602;48.000;7.840;2023-09-12T07:05:27;24.80;99.90
1225;DHT22;602;48.000;7.840;2023-09-12T07:07:54;25.10;99.90
1225;DHT22;602;48.000;7.840;2023-09-12T07:10:22;25.40;99.90
1225;DHT22;602;48.000;7.840;2023-09-12T07:12:49;25.80;99.90
1225;DHT22;602;48.000;7.840;2023-09-12T07:15:16;26.00;99.90
1225;DHT22;602;48.000;7.840;2023-09-12T07:17:43;26.20;99.90
1225;DHT22;602;48.000;7.840;2023-09-12T07:20:10;26.20;99.90
1225;DHT22;602;48.000;7.840;2023-09-12T07:22:38;26.10;99.90
1225;DHT22;602;48.000;7.840;2023-09-12T07:25:07;26.10;99.90
1225;DHT22;602;48.000;7.840;2023-09-12T07:27:36;26.10;99.90
1225;DHT22;602;48.000;7.840;2023-09-12T07:30:03;26.20;99.90
1225;DHT22;602;48.000;7.840;2023-09-12T07:32:30;26.10;99.90
1225;DHT22;602;48.000;7.840;2023-09-12T07:34:57;26.10;99.90
1225;DHT22;602;48.000;7.840;2023-09-12T07:37:24;26.10;99.90
1225;DHT22;602;48.000;7.840;2023-09-12T07:39:51;26.10;99.90
1225;DHT22;602;48.000;7.840;2023-09-12T07:42:21;26.20;99.90
1225;DHT22;602;48.000;7.840;2023-09-12T07:44:49;26.30;99.90
1225;DHT22;602;48.000;7.840;2023-09-12T07:47:16;26.30;99.90
1225;DHT22;602;48.000;7.840;2023-09-12T07:49:43;26.40;99.90
1225;DHT22;602;48.000;7.840;2023-09-12T07:52:13;26.50;99.90
1225;DHT22;602;48.000;7.840;2023-09-12T07:54:40;26.60;99.90
1225;DHT22;602;48.000;7.840;2023-09-12T07:57:06;26.80;99.90
1225;DHT22;602;48.000;7.840;2023-09-12T07:59:34;27.10;99.90
1225;DHT22;602;48.000;7.840;2023-09-12T08:02:02;27.40;99.90
1225;DHT22;602;48.000;7.840;2023-09-12T08:04:29;27.60;99.90
1225;DHT22;602;48.000;7.840;2023-09-12T08:06:56;27.90;99.90
1225;DHT22;602;48.000;7.840;2023-09-12T08:09:23;28.20;99.90
1225;DHT22;602;48.000;7.840;2023-09-12T08:11:50;28.40;99.90
1225;DHT22;602;48.000;7.840;2023-09-12T08:14:17;28.60;99.90
1225;DHT22;602;48.000;7.840;2023-09-12T08:16:45;28.80;99.90
1225;DHT22;602;48.000;7.840;2023-09-12T08:19:14;28.80;99.90
1225;DHT22;602;48.000;7.840;2023-09-12T08:21:40;29.20;99.90
1225;DHT22;602;48.000;7.840;2023-09-12T08:24:07;29.40;99.90
1225;DHT22;602;48.000;7.840;2023-09-12T08:26:34;29.60;99.90
1225;DHT22;602;48.000;7.840;2023-09-12T08:29:01;29.80;99.90
1225;DHT22;602;48.000;7.840;2023-09-12T08:31:28;29.90;99.90
1225;DHT22;602;48.000;7.840;2023-09-12T08:33:55;30.10;99.90
1225;DHT22;602;48.000;7.840;2023-09-12T08:36:23;30.40;99.90
1225;DHT22;602;48.000;7.840;2023-09-12T08:38:50;30.60;99.90
1225;DHT22;602;48.000;7.840;2023-09-12T08:41:17;30.80;99.90
1225;DHT22;602;48.000;7.840;2023-09-12T08:43:44;31.10;99.90
1225;DHT22;602;48.000;7.840;2023-09-12T08:46:12;31.40;99.90
1225;DHT22;602;48.000;7.840;2023-09-12T08:48:40;31.50;99.90
1225;DHT22;602;48.000;7.840;2023-09-12T08:51:09;31.90;99.90
1225;DHT22;602;48.000;7.840;2023-09-12T08:53:39;32.20;99.90
1225;DHT22;602;48.000;7.840;2023-09-12T08:56:06;32.40;99.90
1225;DHT22;602;48.000;7.840;2023-09-12T08:58:34;32.60;99.90
1225;DHT22;602;48.000;7.840;2023-09-12T09:01:02;32.90;99.90
1225;DHT22;602;48.000;7.840;2023-09-12T09:03:30;32.90;99.90
1225;DHT22;602;48.000;7.840;2023-09-12T09:05:58;33.20;99.90
1225;DHT22;602;48.000;7.840;2023-09-12T09:08:27;33.40;99.90
1225;DHT22;602;48.000;7.840;2023-09-12T09:10:56;33.80;99.90
1225;DHT22;602;48.000;7.840;2023-09-12T09:13:24;33.90;99.90
1225;DHT22;602;48.000;7.840;2023-09-12T09:16:09;34.00;99.90
1225;DHT22;602;48.000;7.840;2023-09-12T09:18:50;34.30;99.90
1225;DHT22;602;48.000;7.840;2023-09-12T09:21:17;34.50;99.90
1225;DHT22;602;48.000;7.840;2023-09-12T09:23:45;34.50;98.20
1225;DHT22;602;48.000;7.840;2023-09-12T09:26:14;34.50;98.00
1225;DHT22;602;48.000;7.840;2023-09-12T09:28:41;34.70;99.10
1225;DHT22;602;48.000;7.840;2023-09-12T09:31:11;34.80;98.40
1225;DHT22;602;48.000;7.840;2023-09-12T09:33:39;35.00;96.80
1225;DHT22;602;48.000;7.840;2023-09-12T09:36:07;35.30;96.30
1225;DHT22;602;48.000;7.840;2023-09-12T09:38:34;35.50;94.50
1225;DHT22;602;48.000;7.840;2023-09-12T09:41:04;35.60;92.80
1225;DHT22;602;48.000;7.840;2023-09-12T09:43:33;35.70;91.20
1225;DHT22;602;48.000;7.840;2023-09-12T09:46:00;35.80;89.30
1225;DHT22;602;48.000;7.840;2023-09-12T09:48:28;36.00;88.00
1225;DHT22;602;48.000;7.840;2023-09-12T09:51:00;36.20;84.30
1225;DHT22;602;48.000;7.840;2023-09-12T09:53:28;36.30;80.70
1225;DHT22;602;48.000;7.840;2023-09-12T09:56:08;36.40;80.30
1225;DHT22;602;48.000;7.840;2023-09-12T09:58:41;36.50;78.70
1225;DHT22;602;48.000;7.840;2023-09-12T10:01:09;36.70;77.70
1225;DHT22;602;48.000;7.840;2023-09-12T10:03:37;36.90;73.90
1225;DHT22;602;48.000;7.840;2023-09-12T10:06:05;37.00;73.80
1225;DHT22;602;48.000;7.840;2023-09-12T10:08:32;37.00;72.90
1225;DHT22;602;48.000;7.840;2023-09-12T10:11:01;37.00;71.10
1225;DHT22;602;48.000;7.840;2023-09-12T10:13:30;37.10;70.40
1225;DHT22;602;48.000;7.840;2023-09-12T10:16:01;37.30;70.00
1225;DHT22;602;48.000;7.840;2023-09-12T10:18:36;37.20;73.00
1225;DHT22;602;48.000;7.840;2023-09-12T10:21:10;37.40;70.60
1225;DHT22;602;48.000;7.840;2023-09-12T10:23:39;37.40;71.80
1225;DHT22;602;48.000;7.840;2023-09-12T10:26:11;37.50;69.00
1225;DHT22;602;48.000;7.840;2023-09-12T10:28:41;37.60;68.10
1225;DHT22;602;48.000;7.840;2023-09-12T10:31:12;37.60;67.90
1225;DHT22;602;48.000;7.840;2023-09-12T10:33:39;37.80;67.10
1225;DHT22;602;48.000;7.840;2023-09-12T10:36:08;37.90;67.50
1225;DHT22;602;48.000;7.840;2023-09-12T10:38:40;37.80;65.30
1225;DHT22;602;48.000;7.840;2023-09-12T10:41:11;37.90;61.20
1225;DHT22;602;48.000;7.840;2023-09-12T10:43:40;38.00;62.30
1225;DHT22;602;48.000;7.840;2023-09-12T10:46:07;38.10;62.20
1225;DHT22;602;48.000;7.840;2023-09-12T10:48:37;38.40;60.10
1225;DHT22;602;48.000;7.840;2023-09-12T10:51:07;38.50;60.40
1225;DHT22;602;48.000;7.840;2023-09-12T10:53:34;38.70;60.50
1225;DHT22;602;48.000;7.840;2023-09-12T10:56:19;38.90;59.90
1225;DHT22;602;48.000;7.840;2023-09-12T10:59:10;38.90;59.00
1225;DHT22;602;48.000;7.840;2023-09-12T11:01:38;38.90;58.60
1225;DHT22;602;48.000;7.840;2023-09-12T11:04:32;38.90;57.80
1225;DHT22;602;48.000;7.840;2023-09-12T11:07:00;38.70;58.30
1225;DHT22;602;48.000;7.840;2023-09-12T11:09:27;38.60;58.80
1225;DHT22;602;48.000;7.840;2023-09-12T11:11:57;38.60;59.00
1225;DHT22;602;48.000;7.840;2023-09-12T11:14:25;38.80;59.00
1225;DHT22;602;48.000;7.840;2023-09-12T11:17:20;38.80;58.30
1225;DHT22;602;48.000;7.840;2023-09-12T11:19:50;38.80;58.60
1225;DHT22;602;48.000;7.840;2023-09-12T11:22:22;38.90;59.90
1225;DHT22;602;48.000;7.840;2023-09-12T11:24:50;39.10;59.00
1225;DHT22;602;48.000;7.840;2023-09-12T11:27:17;39.20;58.70
1225;DHT22;602;48.000;7.840;2023-09-12T11:29:44;39.20;58.30
1225;DHT22;602;48.000;7.840;2023-09-12T11:32:25;39.20;58.20
1225;DHT22;602;48.000;7.840;2023-09-12T11:34:53;39.10;57.90
1225;DHT22;602;48.000;7.840;2023-09-12T11:37:24;38.90;58.00
1225;DHT22;602;48.000;7.840;2023-09-12T11:39:52;39.00;58.10
1225;DHT22;602;48.000;7.840;2023-09-12T11:42:20;39.10;57.70
1225;DHT22;602;48.000;7.840;2023-09-12T11:44:49;39.10;58.00
1225;DHT22;602;48.000;7.840;2023-09-12T11:47:16;39.10;58.00
1225;DHT22;602;48.000;7.840;2023-09-12T11:49:43;38.90;58.10
1225;DHT22;602;48.000;7.840;2023-09-12T11:52:13;38.90;58.00
1225;DHT22;602;48.000;7.840;2023-09-12T11:54:40;39.00;58.00
1225;DHT22;602;48.000;7.840;2023-09-12T11:57:08;39.00;58.20
1225;DHT22;602;48.000;7.840;2023-09-12T11:59:37;38.90;57.90
1225;DHT22;602;48.000;7.840;2023-09-12T12:02:06;38.90;58.30
1225;DHT22;602;48.000;7.840;2023-09-12T12:04:33;38.80;58.30
1225;DHT22;602;48.000;7.840;2023-09-12T12:07:01;39.00;57.80
1225;DHT22;602;48.000;7.840;2023-09-12T12:09:31;39.00;58.40
1225;DHT22;602;48.000;7.840;2023-09-12T12:12:04;39.10;57.90
1225;DHT22;602;48.000;7.840;2023-09-12T12:14:34;39.10;57.70
1225;DHT22;602;48.000;7.840;2023-09-12T12:17:05;38.90;58.20
1225;DHT22;602;48.000;7.840;2023-09-12T12:19:32;38.90;58.60
1225;DHT22;602;48.000;7.840;2023-09-12T12:21:59;38.80;57.70
1225;DHT22;602;48.000;7.840;2023-09-12T12:24:38;38.70;58.30
1225;DHT22;602;48.000;7.840;2023-09-12T12:27:05;38.80;58.60
1225;DHT22;602;48.000;7.840;2023-09-12T12:29:34;39.00;59.20
1225;DHT22;602;48.000;7.840;2023-09-12T12:32:01;39.10;59.40
1225;DHT22;602;48.000;7.840;2023-09-12T12:34:28;39.40;59.00
1225;DHT22;602;48.000;7.840;2023-09-12T12:36:55;39.40;58.50
1225;DHT22;602;48.000;7.840;2023-09-12T12:39:23;39.30;58.20
1225;DHT22;602;48.000;7.840;2023-09-12T12:41:53;39.30;58.20
1225;DHT22;602;48.000;7.840;2023-09-12T12:44:20;39.40;58.70
1225;DHT22;602;48.000;7.840;2023-09-12T12:46:48;39.40;58.40
1225;DHT22;602;48.000;7.840;2023-09-12T12:49:15;39.40;58.60
1225;DHT22;602;48.000;7.840;2023-09-12T12:51:42;39.30;58.90
1225;DHT22;602;48.000;7.840;2023-09-12T12:54:09;39.40;58.70
1225;DHT22;602;48.000;7.840;2023-09-12T12:56:37;39.30;58.50
1225;DHT22;602;48.000;7.840;2023-09-12T12:59:07;39.20;58.40
1225;DHT22;602;48.000;7.840;2023-09-12T13:01:34;39.00;58.70
1225;DHT22;602;48.000;7.840;2023-09-12T13:04:02;38.80;58.60
1225;DHT22;602;48.000;7.840;2023-09-12T13:06:30;38.80;59.10
1225;DHT22;602;48.000;7.840;2023-09-12T13:09:01;39.00;59.50
1225;DHT22;602;48.000;7.840;2023-09-12T13:11:30;38.90;59.30
1225;DHT22;602;48.000;7.840;2023-09-12T13:14:00;39.00;59.20
1225;DHT22;602;48.000;7.840;2023-09-12T13:16:28;38.90;58.90
1225;DHT22;602;48.000;7.840;2023-09-12T13:18:55;38.80;58.50
1225;DHT22;602;48.000;7.840;2023-09-12T13:21:22;38.80;59.10
1225;DHT22;602;48.000;7.840;2023-09-12T13:23:49;38.80;57.90
1225;DHT22;602;48.000;7.840;2023-09-12T13:26:16;38.70;57.60
1225;DHT22;602;48.000;7.840;2023-09-12T13:28:43;38.60;57.60
1225;DHT22;602;48.000;7.840;2023-09-12T13:31:10;38.60;57.60
1225;DHT22;602;48.000;7.840;2023-09-12T13:33:38;38.40;57.50
1225;DHT22;602;48.000;7.840;2023-09-12T13:36:07;38.20;57.50
1225;DHT22;602;48.000;7.840;2023-09-12T13:38:34;38.00;57.60
1225;DHT22;602;48.000;7.840;2023-09-12T13:41:01;37.90;57.70
1225;DHT22;602;48.000;7.840;2023-09-12T13:43:28;37.70;58.70
1225;DHT22;602;48.000;7.840;2023-09-12T13:45:55;37.80;58.40
1225;DHT22;602;48.000;7.840;2023-09-12T13:48:22;37.80;53.30
1225;DHT22;602;48.000;7.840;2023-09-12T13:50:50;37.60;51.50
1225;DHT22;602;48.000;7.840;2023-09-12T13:53:17;37.60;50.40
1225;DHT22;602;48.000;7.840;2023-09-12T13:55:44;37.70;49.90
1225;DHT22;602;48.000;7.840;2023-09-12T13:58:11;37.60;50.00
1225;DHT22;602;48.000;7.840;2023-09-12T14:00:38;37.50;50.10
1225;DHT22;602;48.000;7.840;2023-09-12T14:03:05;37.40;50.30
1225;DHT22;602;48.000;7.840;2023-09-12T14:05:32;37.30;49.30
1225;DHT22;602;48.000;7.840;2023-09-12T14:08:00;37.00;49.40
1225;DHT22;602;48.000;7.840;2023-09-12T14:10:27;36.80;49.80
1225;DHT22;602;48.000;7.840;2023-09-12T14:12:54;36.60;50.30
1225;DHT22;602;48.000;7.840;2023-09-12T14:15:21;36.60;51.00
1225;DHT22;602;48.000;7.840;2023-09-12T14:17:48;36.40;51.60
1225;DHT22;602;48.000;7.840;2023-09-12T14:20:15;36.40;51.90
1225;DHT22;602;48.000;7.840;2023-09-12T14:22:42;36.30;51.70
1225;DHT22;602;48.000;7.840;2023-09-12T14:25:11;36.20;52.50
1225;DHT22;602;48.000;7.840;2023-09-12T14:27:41;36.20;52.80
1225;DHT22;602;48.000;7.840;2023-09-12T14:30:09;36.20;53.70
1225;DHT22;602;48.000;7.840;2023-09-12T14:32:38;36.10;53.50
1225;DHT22;602;48.000;7.840;2023-09-12T14:35:05;36.00;53.50
1225;DHT22;602;48.000;7.840;2023-09-12T14:37:33;36.00;53.50
1225;DHT22;602;48.000;7.840;2023-09-12T14:40:02;36.00;53.90
1225;DHT22;602;48.000;7.840;2023-09-12T14:42:31;35.90;54.50
1225;DHT22;602;48.000;7.840;2023-09-12T14:44:58;35.90;54.80
1225;DHT22;602;48.000;7.840;2023-09-12T14:47:25;35.80;55.20
1225;DHT22;602;48.000;7.840;2023-09-12T14:49:53;35.60;54.70
1225;DHT22;602;48.000;7.840;2023-09-12T14:52:20;35.50;54.30
1225;DHT22;602;48.000;7.840;2023-09-12T14:54:47;35.40;54.90
1225;DHT22;602;48.000;7.840;2023-09-12T14:57:14;35.30;55.40
1225;DHT22;602;48.000;7.840;2023-09-12T14:59:42;35.20;55.40
1225;DHT22;602;48.000;7.840;2023-09-12T15:02:09;35.00;55.70
1225;DHT22;602;48.000;7.840;2023-09-12T15:04:36;35.00;56.00
1225;DHT22;602;48.000;7.840;2023-09-12T15:07:03;34.90;56.60
1225;DHT22;602;48.000;7.840;2023-09-12T15:09:30;34.80;56.90
1225;DHT22;602;48.000;7.840;2023-09-12T15:11:57;34.70;57.20
1225;DHT22;602;48.000;7.840;2023-09-12T15:14:24;34.50;57.50
1225;DHT22;602;48.000;7.840;2023-09-12T15:16:52;34.40;57.60
1225;DHT22;602;48.000;7.840;2023-09-12T15:19:19;34.40;58.00
1225;DHT22;602;48.000;7.840;2023-09-12T15:21:46;34.40;58.30
1225;DHT22;602;48.000;7.840;2023-09-12T15:24:12;34.20;58.70
1225;DHT22;602;48.000;7.840;2023-09-12T15:26:39;34.20;58.90
1225;DHT22;602;48.000;7.840;2023-09-12T15:29:06;34.10;59.10
1225;DHT22;602;48.000;7.840;2023-09-12T15:31:33;33.90;60.40
1225;DHT22;602;48.000;7.840;2023-09-12T15:34:02;33.90;60.10
1225;DHT22;602;48.000;7.840;2023-09-12T15:36:29;33.90;60.70
1225;DHT22;602;48.000;7.840;2023-09-12T15:39:02;33.90;60.80
1225;DHT22;602;48.000;7.840;2023-09-12T15:41:30;33.90;60.80
1225;DHT22;602;48.000;7.840;2023-09-12T15:43:57;33.90;61.30
1225;DHT22;602;48.000;7.840;2023-09-12T15:46:24;33.90;60.80
1225;DHT22;602;48.000;7.840;2023-09-12T15:48:51;33.70;61.10
1225;DHT22;602;48.000;7.840;2023-09-12T15:51:19;33.70;62.00
1225;DHT22;602;48.000;7.840;2023-09-12T15:53:46;33.60;62.90
1225;DHT22;602;48.000;7.840;2023-09-12T15:56:13;33.60;63.20
1225;DHT22;602;48.000;7.840;2023-09-12T15:58:39;33.50;63.60
1225;DHT22;602;48.000;7.840;2023-09-12T16:01:07;33.50;63.90
1225;DHT22;602;48.000;7.840;2023-09-12T16:03:34;33.40;64.30
1225;DHT22;602;48.000;7.840;2023-09-12T16:06:01;33.40;64.80
1225;DHT22;602;48.000;7.840;2023-09-12T16:08:29;33.30;64.90
1225;DHT22;602;48.000;7.840;2023-09-12T16:10:56;33.30;65.00
1225;DHT22;602;48.000;7.840;2023-09-12T16:13:23;33.30;64.90
1225;DHT22;602;48.000;7.840;2023-09-12T16:15:50;33.30;65.00
1225;DHT22;602;48.000;7.840;2023-09-12T16:18:16;33.30;65.00
1225;DHT22;602;48.000;7.840;2023-09-12T16:20:43;33.30;65.00
1225;DHT22;602;48.000;7.840;2023-09-12T16:23:10;33.30;65.30
1225;DHT22;602;48.000;7.840;2023-09-12T16:25:38;33.20;65.40